Time;durP1;ratioP1;P1;durP2;ratioP2;P2;SDS_P1;SDS_P2;PMS_P1;PMS_P2;Temp;Humidity;BMP_temperature;BMP_pressure;BME280_temperature;BME280_humidity;BME280_pressure;Samples;Min_cycle;Max_cycle;Signal;HPM_P1;HPM_P2
2023/02/12 00:01:12;;;;;;;38.60;17.83;;;9.30;99.90;;;;;;5015763;28;20917;-73
2023/02/12 00:03:38;;;;;;;40.40;19.43;;;9.30;99.90;;;;;;5021740;28;20186;-72
2023/02/12 00:06:05;;;;;;;45.63;20.90;;;9.30;99.90;;;;;;5034016;28;20417;-73
2023/02/12 00:08:30;;;;;;;39.20;19.77;;;9.30;99.90;;;;;;5035429;28;20521;-73
2023/02/12 00:10:56;;;;;;;36.80;20.00;;;9.30;99.90;;;;;;5035450;28;20560;-72
2023/02/12 00:13:22;;;;;;;35.07;18.97;;;9.30;99.90;;;;;;5035336;28;20299;-73
2023/02/12 00:15:48;;;;;;;36.97;19.97;;;9.30;99.90;;;;;;5035265;28;20164;-73
2023/02/12 00:18:13;;;;;;;41.90;20.60;;;9.30;99.90;;;;;;5019365;28;20422;-73
2023/02/12 00:20:39;;;;;;;28.53;16.07;;;9.30;99.90;;;;;;4995994;28;20196;-73
2023/02/12 00:23:05;;;;;;;41.17;20.60;;;9.30;99.90;;;;;;4994636;28;20177;-72
2023/02/12 00:25:30;;;;;;;38.33;18.90;;;9.40;99.90;;;;;;4995755;28;20169;-72
2023/02/12 00:27:56;;;;;;;33.93;17.07;;;9.40;99.90;;;;;;4995747;28;20948;-73
2023/02/12 00:30:22;;;;;;;32.73;17.17;;;9.30;99.90;;;;;;5013802;28;20298;-73
2023/02/12 00:32:47;;;;;;;29.83;17.10;;;9.30;99.90;;;;;;5015260;28;20250;-73
2023/02/12 00:35:13;;;;;;;47.30;20.00;;;9.40;99.90;;;;;;5014909;28;20164;-72
2023/02/12 00:37:38;;;;;;;38.07;19.20;;;9.40;99.90;;;;;;5015357;28;20164;-73
2023/02/12 00:40:05;;;;;;;38.87;18.50;;;9.40;99.90;;;;;;5013876;28;20179;-73
2023/02/12 00:42:31;;;;;;;37.23;19.00;;;9.40;99.90;;;;;;5015108;28;20160;-73
2023/02/12 00:44:56;;;;;;;37.80;17.93;;;9.30;99.90;;;;;;5010993;28;20474;-73
2023/02/12 00:47:22;;;;;;;33.90;17.80;;;9.30;99.90;;;;;;4997397;28;20645;-73
2023/02/12 00:49:47;;;;;;;35.17;18.80;;;9.30;99.90;;;;;;5012695;28;20180;-72
2023/02/12 00:52:13;;;;;;;38.47;19.03;;;9.40;99.90;;;;;;5015070;28;20249;-73
2023/02/12 00:54:38;;;;;;;33.97;17.57;;;9.40;99.90;;;;;;5014840;28;20187;-73
2023/02/12 00:57:04;;;;;;;37.97;18.77;;;9.30;99.90;;;;;;5014805;28;20164;-73
2023/02/12 00:59:29;;;;;;;38.87;18.30;;;9.40;99.90;;;;;;5013692;28;20246;-72
2023/02/12 01:01:55;;;;;;;43.47;18.80;;;9.30;99.90;;;;;;5014595;28;20562;-73
2023/02/12 01:04:21;;;;;;;40.57;19.67;;;9.30;99.90;;;;;;5014613;28;20176;-73
2023/02/12 01:06:47;;;;;;;31.27;17.00;;;9.30;99.90;;;;;;5014708;28;20272;-73
2023/02/12 01:09:13;;;;;;;38.03;17.30;;;9.30;99.90;;;;;;5014386;28;20522;-73
2023/02/12 01:11:39;;;;;;;36.20;17.27;;;9.30;99.90;;;;;;5013679;28;20203;-73
2023/02/12 01:14:05;;;;;;;36.03;18.47;;;9.30;99.90;;;;;;5023270;28;20175;-73
2023/02/12 01:16:32;;;;;;;30.93;17.93;;;9.30;99.90;;;;;;5015876;28;20418;-73
2023/02/12 01:18:58;;;;;;;34.07;18.77;;;9.30;99.90;;;;;;4994928;28;20491;-72
2023/02/12 01:21:26;;;;;;;38.90;19.00;;;9.30;99.90;;;;;;4994889;28;20523;-71
2023/02/12 01:23:52;;;;;;;34.73;19.17;;;9.30;99.90;;;;;;4994802;28;20439;-73
2023/02/12 01:26:19;;;;;;;34.17;18.60;;;9.30;99.90;;;;;;4994703;28;20416;-72
2023/02/12 01:28:51;;;;;;;33.47;18.50;;;9.20;99.90;;;;;;4994729;28;20176;-73
2023/02/12 01:31:20;;;;;;;34.67;18.57;;;9.20;99.90;;;;;;4994517;28;20420;-73
2023/02/12 01:33:52;;;;;;;32.50;16.97;;;9.20;99.90;;;;;;4994667;28;20459;-73
2023/02/12 01:36:18;;;;;;;32.87;17.90;;;9.30;99.90;;;;;;4994368;28;20408;-73
2023/02/12 01:38:43;;;;;;;36.30;20.73;;;9.20;99.90;;;;;;4994657;28;20893;-73
2023/02/12 01:41:15;;;;;;;41.77;21.37;;;9.30;99.90;;;;;;4994316;28;20432;-73
2023/02/12 01:43:41;;;;;;;32.43;18.80;;;9.20;99.90;;;;;;4994510;28;20173;-73
2023/02/12 01:46:10;;;;;;;29.17;16.37;;;9.20;99.90;;;;;;4993937;28;20412;-71
2023/02/12 01:48:42;;;;;;;35.33;19.90;;;9.20;99.90;;;;;;5013039;28;20242;-73
2023/02/12 01:51:13;;;;;;;39.20;17.73;;;9.20;99.90;;;;;;5013831;28;20431;-73
2023/02/12 01:53:47;;;;;;;35.77;18.47;;;9.20;99.90;;;;;;5013922;28;20559;-73
2023/02/12 01:56:13;;;;;;;36.47;18.40;;;9.20;99.90;;;;;;5013219;28;20454;-71
2023/02/12 01:58:42;;;;;;;31.30;17.70;;;9.10;99.90;;;;;;5013879;28;20415;-72
2023/02/12 02:01:21;;;;;;;34.73;19.50;;;9.10;99.90;;;;;;5013725;28;20431;-73
2023/02/12 02:03:51;;;;;;;28.80;17.40;;;9.10;99.90;;;;;;5013721;28;20418;-73
2023/02/12 02:06:21;;;;;;;33.07;18.80;;;9.10;99.90;;;;;;5013434;28;20494;-72
2023/02/12 02:08:47;;;;;;;30.30;17.10;;;9.10;99.90;;;;;;5013520;28;20510;-73
2023/02/12 02:16:49;;;;;;;30.87;17.60;;;9.10;99.90;;;;;;5006374;28;21094;-73
2023/02/12 02:20:01;;;;;;;42.23;19.37;;;9.10;99.90;;;;;;5009736;28;20420;-73
2023/02/12 02:22:51;;;;;;;33.90;19.07;;;9.10;99.90;;;;;;4993310;28;20773;-73
2023/02/12 02:25:19;;;;;;;34.80;17.90;;;9.10;99.90;;;;;;4993285;28;20422;-72
2023/02/12 02:28:11;;;;;;;35.07;18.23;;;9.10;99.90;;;;;;4993702;28;20400;-72
2023/02/12 02:31:02;;;;;;;34.40;17.83;;;9.10;99.90;;;;;;4992253;28;20452;-72
2023/02/12 02:33:49;;;;;;;29.60;17.67;;;9.00;99.90;;;;;;4992968;28;21023;-72
2023/02/12 02:36:21;;;;;;;33.40;17.90;;;9.00;99.90;;;;;;4993291;28;20404;-72
2023/02/12 02:38:52;;;;;;;35.70;17.40;;;9.00;99.90;;;;;;4993380;28;20404;-72
2023/02/12 02:41:41;;;;;;;33.90;18.40;;;9.00;99.90;;;;;;4993203;28;20450;-73
2023/02/12 02:44:13;;;;;;;36.80;18.30;;;9.00;99.90;;;;;;4993355;28;20786;-73
2023/02/12 02:46:42;;;;;;;33.40;18.80;;;9.00;99.90;;;;;;5001820;28;20415;-73
2023/02/12 02:49:14;;;;;;;35.57;18.20;;;9.10;99.90;;;;;;5012816;28;20447;-73
2023/02/12 02:51:44;;;;;;;30.90;16.67;;;9.10;99.90;;;;;;4995188;28;20952;-73
2023/02/12 02:54:40;;;;;;;32.47;17.97;;;9.00;99.90;;;;;;5003340;28;20419;-70
2023/02/12 02:57:25;;;;;;;32.87;17.30;;;9.10;99.90;;;;;;5011094;28;20411;-72
2023/02/12 02:59:55;;;;;;;40.70;17.57;;;9.10;99.90;;;;;;5012706;28;20407;-71
2023/02/12 03:02:34;;;;;;;32.57;17.90;;;9.10;99.90;;;;;;5012623;28;20776;-73
2023/02/12 03:05:13;;;;;;;37.87;17.73;;;9.10;99.90;;;;;;5012368;28;20754;-72
2023/02/12 03:07:52;;;;;;;35.80;18.43;;;9.10;99.90;;;;;;5011284;28;20403;-72
2023/02/12 03:10:26;;;;;;;30.40;18.40;;;9.10;99.90;;;;;;5011052;28;20625;-72
2023/02/12 03:12:54;;;;;;;38.07;18.33;;;9.10;99.90;;;;;;5009769;28;20454;-73
2023/02/12 03:15:25;;;;;;;22.43;15.33;;;9.10;99.90;;;;;;5010554;28;20406;-72
2023/02/12 03:17:51;;;;;;;34.87;16.47;;;9.10;99.90;;;;;;5011065;28;20952;-73
2023/02/12 03:20:42;;;;;;;26.37;15.93;;;9.10;99.90;;;;;;5012136;28;20447;-72
2023/02/12 03:23:14;;;;;;;33.60;16.93;;;9.00;99.90;;;;;;5012394;28;20174;-72
2023/02/12 03:26:03;;;;;;;40.80;18.23;;;9.00;99.90;;;;;;5011852;28;20435;-72
2023/02/12 03:28:35;;;;;;;33.83;17.43;;;9.00;99.90;;;;;;5012303;28;20445;-72
2023/02/12 03:31:29;;;;;;;38.27;19.70;;;9.00;99.90;;;;;;5020211;28;20935;-73
2023/02/12 03:34:14;;;;;;;40.17;18.60;;;8.90;99.90;;;;;;5011519;28;20482;-72
2023/02/12 03:37:07;;;;;;;31.47;17.80;;;8.90;99.90;;;;;;5012091;28;20900;-72
2023/02/12 03:39:48;;;;;;;32.33;17.37;;;8.90;99.90;;;;;;5010878;28;20472;-72
2023/02/12 03:42:24;;;;;;;32.10;17.40;;;8.80;99.90;;;;;;5011976;28;20874;-72
2023/02/12 03:45:02;;;;;;;38.70;19.30;;;8.80;99.90;;;;;;5009004;28;20396;-72
2023/02/12 03:47:45;;;;;;;32.87;17.07;;;8.80;99.90;;;;;;4992382;28;20416;-72
2023/02/12 03:50:18;;;;;;;34.53;19.03;;;8.80;99.90;;;;;;4992540;28;20519;-72
2023/02/12 03:52:45;;;;;;;38.00;20.67;;;8.80;99.90;;;;;;4992265;28;20452;-72
2023/02/12 03:55:11;;;;;;;34.07;19.60;;;8.80;99.90;;;;;;4992467;28;20914;-72
2023/02/12 03:57:48;;;;;;;41.10;18.80;;;8.70;99.90;;;;;;4992370;28;20479;-73
2023/02/12 04:00:22;;;;;;;48.17;18.40;;;8.70;99.90;;;;;;4992358;28;20428;-73
2023/02/12 04:02:48;;;;;;;39.23;18.70;;;8.70;99.90;;;;;;4992387;28;20396;-72
2023/02/12 04:05:20;;;;;;;29.97;17.50;;;8.70;99.90;;;;;;4992065;28;20743;-72
2023/02/12 04:07:46;;;;;;;34.00;18.30;;;8.70;99.90;;;;;;4992377;28;20223;-72
2023/02/12 04:10:12;;;;;;;36.17;17.87;;;8.70;99.90;;;;;;4992055;28;20451;-72
2023/02/12 04:12:50;;;;;;;34.30;17.40;;;8.80;99.90;;;;;;4992248;28;20606;-72
2023/02/12 04:15:50;;;;;;;35.93;17.27;;;8.80;99.90;;;;;;4993964;28;20445;-72
2023/02/12 04:18:21;;;;;;;38.37;18.50;;;8.90;99.90;;;;;;5011895;28;20465;-72
2023/02/12 04:21:10;;;;;;;36.57;17.97;;;8.80;99.90;;;;;;5011566;28;20800;-72
2023/02/12 04:23:52;;;;;;;34.93;16.90;;;8.80;99.90;;;;;;5011763;28;20497;-71
2023/02/12 04:26:17;;;;;;;30.30;16.70;;;8.90;99.90;;;;;;5011453;28;20416;-72
2023/02/12 04:29:16;;;;;;;58.47;26.60;;;8.90;99.90;;;;;;5010306;28;20412;-73
2023/02/12 04:31:46;;;;;;;34.17;20.10;;;8.90;99.90;;;;;;5011564;28;20298;-73
2023/02/12 04:34:23;;;;;;;38.80;20.53;;;8.90;99.90;;;;;;5011679;28;20482;-73
2023/02/12 04:37:15;;;;;;;34.10;18.60;;;8.90;99.90;;;;;;5011599;28;20468;-73
2023/02/12 04:39:43;;;;;;;39.37;18.67;;;8.90;99.90;;;;;;5011606;28;20434;-74
2023/02/12 04:42:08;;;;;;;34.07;18.53;;;8.90;99.90;;;;;;5016559;28;20496;-74
2023/02/12 04:44:40;;;;;;;36.80;18.70;;;9.00;99.90;;;;;;5018493;28;20921;-72
2023/02/12 04:47:06;;;;;;;35.90;18.43;;;8.90;99.90;;;;;;4995229;28;20279;-72
2023/02/12 04:49:32;;;;;;;32.80;16.60;;;9.00;99.90;;;;;;4995512;28;20490;-72
2023/02/12 04:51:57;;;;;;;33.20;19.23;;;9.00;99.90;;;;;;4995290;28;20452;-73
2023/02/12 04:54:23;;;;;;;38.50;17.93;;;9.00;99.90;;;;;;4995140;28;20604;-73
2023/02/12 04:56:49;;;;;;;39.80;18.00;;;9.00;99.90;;;;;;4995442;28;20332;-72
2023/02/12 04:59:15;;;;;;;33.77;18.87;;;9.00;99.90;;;;;;4993909;28;20451;-72
2023/02/12 05:01:41;;;;;;;35.80;17.20;;;9.00;99.90;;;;;;4995225;28;20482;-72
2023/02/12 05:04:09;;;;;;;32.23;16.47;;;9.00;99.90;;;;;;4995177;28;20626;-72
2023/02/12 05:06:36;;;;;;;33.73;17.87;;;9.00;99.90;;;;;;4993710;28;20424;-72
2023/02/12 05:09:03;;;;;;;34.50;17.70;;;9.00;99.90;;;;;;4994878;28;20439;-72
2023/02/12 05:11:28;;;;;;;33.30;18.60;;;9.00;99.90;;;;;;4993757;28;20435;-72
2023/02/12 05:13:54;;;;;;;43.17;16.90;;;9.00;99.90;;;;;;4995007;28;20505;-73
2023/02/12 05:16:20;;;;;;;34.63;17.40;;;9.00;99.90;;;;;;5011019;28;20183;-73
2023/02/12 05:18:47;;;;;;;30.13;17.67;;;9.00;99.90;;;;;;5014647;28;20172;-73
2023/02/12 05:21:12;;;;;;;29.00;17.77;;;9.00;99.90;;;;;;5014373;28;20514;-73
2023/02/12 05:23:39;;;;;;;34.17;16.90;;;8.90;99.90;;;;;;5014495;28;20534;-72
2023/02/12 05:26:09;;;;;;;31.63;16.27;;;9.00;99.90;;;;;;5014167;28;20176;-72
2023/02/12 05:28:35;;;;;;;31.10;17.80;;;9.00;99.90;;;;;;5013180;28;20427;-72
2023/02/12 05:31:03;;;;;;;29.83;15.87;;;8.90;99.90;;;;;;5014222;28;20438;-72
2023/02/12 05:33:29;;;;;;;36.73;17.27;;;8.90;99.90;;;;;;5014234;28;20469;-72
2023/02/12 05:35:55;;;;;;;38.83;18.67;;;9.00;99.90;;;;;;5013981;28;20410;-72
2023/02/12 05:38:21;;;;;;;34.10;16.67;;;8.90;99.90;;;;;;5014112;28;20407;-72
2023/02/12 05:40:46;;;;;;;31.70;17.00;;;8.90;99.90;;;;;;5014141;28;20669;-72
2023/02/12 05:43:13;;;;;;;31.93;17.90;;;8.90;99.90;;;;;;5014029;28;20465;-73
2023/02/12 05:45:40;;;;;;;29.80;15.20;;;9.00;99.90;;;;;;5006172;28;20184;-73
2023/02/12 05:48:06;;;;;;;27.37;15.10;;;9.00;99.90;;;;;;5014680;28;20406;-71
2023/02/12 05:50:31;;;;;;;42.77;22.93;;;9.00;99.90;;;;;;5023880;28;20803;-71
2023/02/12 05:52:59;;;;;;;36.17;18.23;;;9.00;99.90;;;;;;5013785;28;20447;-72
2023/02/12 05:55:25;;;;;;;26.67;16.97;;;9.00;99.90;;;;;;5013581;28;20818;-72
2023/02/12 05:57:50;;;;;;;35.70;18.70;;;8.90;99.90;;;;;;5013361;28;20404;-70
2023/02/12 06:00:16;;;;;;;35.23;18.13;;;9.00;99.90;;;;;;5013647;28;20184;-71
2023/02/12 06:02:41;;;;;;;23.27;16.00;;;9.00;99.90;;;;;;5013749;28;20168;-71
2023/02/12 06:05:07;;;;;;;34.80;15.23;;;8.90;99.90;;;;;;5013339;28;20230;-72
2023/02/12 06:07:32;;;;;;;36.13;16.43;;;9.00;99.90;;;;;;5013661;28;20549;-71
2023/02/12 06:09:58;;;;;;;35.77;18.00;;;8.90;99.90;;;;;;5013362;28;20684;-71
2023/02/12 06:12:24;;;;;;;33.80;18.00;;;8.90;99.90;;;;;;5013472;28;20203;-71
2023/02/12 06:14:49;;;;;;;35.60;17.00;;;8.90;99.90;;;;;;5005800;28;20183;-72
2023/02/12 06:17:15;;;;;;;33.80;17.37;;;8.90;99.90;;;;;;5008797;28;20180;-72
2023/02/12 06:19:40;;;;;;;34.73;19.17;;;8.90;99.90;;;;;;5013352;28;20176;-72
2023/02/12 06:22:06;;;;;;;37.73;18.43;;;8.90;99.90;;;;;;5013231;28;20597;-72
2023/02/12 06:24:31;;;;;;;31.90;17.90;;;8.90;99.90;;;;;;5012996;28;20639;-72
2023/02/12 06:26:57;;;;;;;40.27;17.83;;;8.80;99.90;;;;;;5013048;28;20176;-73
2023/02/12 06:29:22;;;;;;;32.97;15.90;;;8.80;99.90;;;;;;5013338;28;20285;-73
2023/02/12 06:31:48;;;;;;;36.70;18.27;;;8.80;99.90;;;;;;5012921;28;20262;-73
2023/02/12 06:34:16;;;;;;;38.13;18.27;;;8.80;99.90;;;;;;5012939;28;20210;-74
2023/02/12 06:36:43;;;;;;;38.27;17.30;;;8.80;99.90;;;;;;5013082;28;20165;-72
2023/02/12 06:39:10;;;;;;;41.43;18.17;;;8.80;99.90;;;;;;5013153;28;20411;-72
2023/02/12 06:41:36;;;;;;;29.37;15.37;;;8.80;99.90;;;;;;5012783;28;20462;-71
2023/02/12 06:44:01;;;;;;;35.80;15.30;;;8.70;99.90;;;;;;5012858;28;20446;-71
2023/02/12 06:46:27;;;;;;;31.47;15.27;;;8.70;99.90;;;;;;4998271;28;20573;-71
2023/02/12 06:48:58;;;;;;;29.77;15.67;;;8.80;99.90;;;;;;4993173;28;20409;-71
2023/02/12 06:51:25;;;;;;;31.57;16.57;;;8.70;99.90;;;;;;4993307;28;20266;-71
2023/02/12 06:53:52;;;;;;;30.73;15.63;;;8.80;99.90;;;;;;4993190;28;20497;-73
2023/02/12 06:56:19;;;;;;;27.07;16.03;;;8.70;99.90;;;;;;4991691;28;20424;-72
2023/02/12 06:58:47;;;;;;;30.37;15.77;;;8.70;99.90;;;;;;4992992;28;20507;-72
2023/02/12 07:01:21;;;;;;;35.53;17.63;;;8.80;99.90;;;;;;5010240;28;20443;-73
2023/02/12 07:03:52;;;;;;;34.47;18.50;;;8.80;99.90;;;;;;5031724;28;20413;-73
2023/02/12 07:06:18;;;;;;;34.53;17.27;;;8.80;99.90;;;;;;5030731;28;20908;-72
2023/02/12 07:08:44;;;;;;;31.23;15.47;;;8.80;99.90;;;;;;5031390;28;20468;-72
2023/02/12 07:11:10;;;;;;;33.30;16.90;;;8.80;99.90;;;;;;5032150;28;20196;-72
2023/02/12 07:13:36;;;;;;;31.20;18.00;;;8.80;99.90;;;;;;5029826;28;20955;-72
2023/02/12 07:16:10;;;;;;;26.80;17.10;;;8.80;99.90;;;;;;5011078;28;20168;-72
2023/02/12 07:18:37;;;;;;;29.57;16.53;;;8.80;99.90;;;;;;5012435;28;20433;-74
2023/02/12 07:21:04;;;;;;;35.43;18.47;;;8.90;99.90;;;;;;5012269;28;20482;-72
2023/02/12 07:23:29;;;;;;;29.47;15.77;;;8.90;99.90;;;;;;5012425;28;20410;-74
2023/02/12 07:26:01;;;;;;;29.57;16.60;;;8.90;99.90;;;;;;5012180;28;20509;-73
2023/02/12 07:28:27;;;;;;;38.73;19.13;;;8.90;99.90;;;;;;5012279;28;20172;-73
2023/02/12 07:30:52;;;;;;;33.63;18.20;;;8.90;99.90;;;;;;5012258;28;20613;-71
2023/02/12 07:33:19;;;;;;;40.63;19.67;;;8.90;99.90;;;;;;5012121;28;20624;-73
2023/02/12 07:35:45;;;;;;;35.83;18.37;;;8.90;99.90;;;;;;5011912;28;20804;-74
2023/02/12 07:38:11;;;;;;;35.07;16.40;;;9.00;99.90;;;;;;5012182;28;20399;-73
2023/02/12 07:40:37;;;;;;;27.23;15.50;;;9.00;99.90;;;;;;5005749;28;20884;-72
2023/02/12 07:43:02;;;;;;;33.80;16.87;;;9.00;99.90;;;;;;5008298;28;20458;-73
2023/02/12 07:45:28;;;;;;;33.67;17.70;;;9.10;99.90;;;;;;5003715;28;20188;-72
2023/02/12 07:47:53;;;;;;;31.90;17.57;;;9.10;99.90;;;;;;4992496;28;20216;-73
2023/02/12 07:50:19;;;;;;;32.37;16.03;;;9.10;99.90;;;;;;4992306;28;20565;-73
2023/02/12 07:52:47;;;;;;;33.17;17.20;;;9.20;99.90;;;;;;4992496;28;20902;-73
2023/02/12 07:55:12;;;;;;;36.90;17.13;;;9.20;99.90;;;;;;4992191;28;20169;-72
2023/02/12 07:57:38;;;;;;;36.63;17.60;;;9.30;99.90;;;;;;4992538;28;20770;-72
2023/02/12 08:00:04;;;;;;;33.83;16.50;;;9.40;99.90;;;;;;4992436;28;20534;-73
2023/02/12 08:02:29;;;;;;;32.10;16.60;;;9.40;99.90;;;;;;4997869;28;20191;-72
2023/02/12 08:04:56;;;;;;;39.17;18.30;;;9.50;99.90;;;;;;5011615;28;20411;-71
2023/02/12 08:07:22;;;;;;;31.70;16.93;;;9.60;99.90;;;;;;5010601;28;20180;-72
2023/02/12 08:09:48;;;;;;;28.00;15.50;;;9.60;99.90;;;;;;5011807;28;20431;-72
2023/02/12 08:12:14;;;;;;;31.17;16.43;;;9.70;99.90;;;;;;5009864;28;20471;-73
2023/02/12 08:14:39;;;;;;;37.23;20.77;;;9.70;99.90;;;;;;5019973;28;20947;-71
2023/02/12 08:17:05;;;;;;;36.40;18.37;;;9.80;99.90;;;;;;5030216;28;20171;-71
2023/02/12 08:19:31;;;;;;;36.17;20.23;;;9.80;99.90;;;;;;5031334;28;20163;-72
2023/02/12 08:21:56;;;;;;;40.73;19.80;;;9.80;99.90;;;;;;5035289;28;20521;-72
2023/02/12 08:24:23;;;;;;;29.10;17.40;;;9.80;99.90;;;;;;5033915;28;20176;-72
2023/02/12 08:26:49;;;;;;;32.60;17.67;;;9.90;99.90;;;;;;5035329;28;20164;-73
2023/02/12 08:29:21;;;;;;;40.97;18.57;;;9.90;99.90;;;;;;5035191;28;20413;-72
2023/02/12 08:31:48;;;;;;;32.40;15.40;;;10.00;99.90;;;;;;5034968;28;20448;-72
2023/02/12 08:34:19;;;;;;;32.67;17.77;;;10.10;99.90;;;;;;5034616;28;20444;-72
2023/02/12 08:36:47;;;;;;;41.60;20.80;;;10.20;99.90;;;;;;5035141;28;20745;-72
2023/02/12 08:39:13;;;;;;;32.87;17.93;;;10.30;99.90;;;;;;5035018;28;20452;-72
2023/02/12 08:41:41;;;;;;;34.77;19.57;;;10.40;99.90;;;;;;5008665;28;20942;-72
2023/02/12 08:44:07;;;;;;;31.33;18.33;;;10.40;99.90;;;;;;4995561;28;20396;-72
2023/02/12 08:46:38;;;;;;;38.70;17.20;;;10.50;99.90;;;;;;4995154;28;20408;-72
2023/02/12 08:49:11;;;;;;;28.57;17.60;;;10.60;99.90;;;;;;4995573;28;20407;-72
2023/02/12 08:51:39;;;;;;;33.03;17.43;;;10.70;99.90;;;;;;4995668;28;20415;-72
2023/02/12 08:54:06;;;;;;;30.77;18.33;;;10.80;99.90;;;;;;4995527;28;20439;-72
2023/02/12 08:56:34;;;;;;;33.47;17.30;;;10.90;99.90;;;;;;4995080;28;20392;-72
2023/02/12 08:59:02;;;;;;;43.07;21.00;;;11.00;99.90;;;;;;4995303;28;20758;-72
2023/02/12 09:01:30;;;;;;;32.67;19.80;;;11.00;99.90;;;;;;4995199;28;20831;-72
2023/02/12 09:03:56;;;;;;;39.33;20.13;;;11.10;99.90;;;;;;4993924;28;20814;-72
2023/02/12 09:06:23;;;;;;;41.10;20.83;;;11.10;99.90;;;;;;4994471;28;20459;-72
2023/02/12 09:08:49;;;;;;;34.73;19.57;;;11.10;99.90;;;;;;4995098;28;20180;-74
2023/02/12 09:11:18;;;;;;;43.87;23.27;;;11.10;99.90;;;;;;4994983;28;20479;-73
2023/02/12 09:13:46;;;;;;;40.87;20.20;;;11.10;99.90;;;;;;4994956;28;20455;-73
2023/02/12 09:16:12;;;;;;;40.17;20.00;;;11.10;99.90;;;;;;4994763;28;20404;-73
2023/02/12 09:18:38;;;;;;;35.13;19.90;;;11.40;99.90;;;;;;5018484;28;20406;-72
2023/02/12 09:21:09;;;;;;;40.90;20.83;;;11.60;99.90;;;;;;5034255;28;20440;-72
2023/02/12 09:23:35;;;;;;;37.50;21.30;;;11.80;99.90;;;;;;5033028;28;20453;-72
2023/02/12 09:26:04;;;;;;;31.20;19.30;;;12.00;99.90;;;;;;5033926;28;20445;-71
2023/02/12 09:28:30;;;;;;;40.60;22.73;;;12.20;99.90;;;;;;5034210;28;20823;-72
2023/02/12 09:30:55;;;;;;;31.47;19.03;;;12.30;99.90;;;;;;5032934;28;20434;-72
2023/02/12 09:33:22;;;;;;;39.77;20.93;;;12.40;99.90;;;;;;5034004;28;20665;-72
2023/02/12 09:35:47;;;;;;;32.33;19.90;;;12.50;99.90;;;;;;5033799;28;20171;-72
2023/02/12 09:38:13;;;;;;;33.60;20.47;;;12.60;99.90;;;;;;5033967;28;20436;-72
2023/02/12 09:41:06;;;;;;;29.90;19.90;;;12.70;99.90;;;;;;5018260;28;20188;-72
2023/02/12 09:43:54;;;;;;;30.10;19.73;;;12.70;99.90;;;;;;5014087;28;20179;-72
2023/02/12 09:46:30;;;;;;;41.07;19.77;;;12.70;99.90;;;;;;4998689;28;20427;-72
2023/02/12 09:49:04;;;;;;;37.10;21.60;;;12.70;99.90;;;;;;4994171;28;20400;-72
2023/02/12 09:51:30;;;;;;;40.20;20.83;;;12.80;99.90;;;;;;5004361;28;20432;-72
2023/02/12 09:54:06;;;;;;;36.47;22.40;;;12.70;99.90;;;;;;4994215;28;20538;-72
2023/02/12 09:56:36;;;;;;;31.93;19.00;;;12.60;99.90;;;;;;4992984;28;20416;-72
2023/02/12 09:59:06;;;;;;;40.47;21.80;;;12.70;99.90;;;;;;4993146;28;20419;-72
2023/02/12 10:01:33;;;;;;;33.63;19.50;;;12.70;99.90;;;;;;4994032;28;20438;-72
2023/02/12 10:03:59;;;;;;;39.33;21.40;;;12.80;99.90;;;;;;4994227;28;20401;-72
2023/02/12 10:06:32;;;;;;;38.23;21.60;;;12.80;99.90;;;;;;4993937;28;20794;-72
2023/02/12 10:09:14;;;;;;;42.00;22.83;;;13.00;99.90;;;;;;4994013;28;20478;-71
2023/02/12 10:11:50;;;;;;;44.40;23.93;;;13.20;99.90;;;;;;4994327;28;20471;-72
2023/02/12 10:14:28;;;;;;;37.63;21.07;;;13.30;99.90;;;;;;4994052;28;20979;-72
2023/02/12 10:17:06;;;;;;;30.57;20.20;;;13.60;99.90;;;;;;4993938;28;20495;-72
2023/02/12 10:19:47;;;;;;;32.90;20.10;;;13.80;99.90;;;;;;4993658;28;20416;-72
2023/02/12 10:22:43;;;;;;;39.97;21.40;;;14.10;99.90;;;;;;4993650;28;20520;-72
2023/02/12 10:25:22;;;;;;;36.10;21.67;;;14.20;99.90;;;;;;4993528;28;20487;-72
2023/02/12 10:27:50;;;;;;;42.97;22.93;;;14.20;99.90;;;;;;4993755;28;20396;-72
2023/02/12 10:30:44;;;;;;;32.20;21.50;;;14.40;99.90;;;;;;5019465;28;20430;-72
2023/02/12 10:33:23;;;;;;;39.67;22.80;;;14.40;99.90;;;;;;5008619;28;20460;-72
2023/02/12 10:35:53;;;;;;;53.87;30.50;;;14.50;99.90;;;;;;4993451;28;20400;-72
2023/02/12 10:38:28;;;;;;;44.37;22.30;;;14.50;99.90;;;;;;4993469;28;20407;-72
2023/02/12 10:40:56;;;;;;;36.17;22.70;;;14.50;99.90;;;;;;5004872;28;20430;-72
2023/02/12 10:43:22;;;;;;;34.60;19.80;;;14.60;99.90;;;;;;5009685;28;20771;-72
2023/02/12 10:45:49;;;;;;;32.57;20.20;;;14.70;99.90;;;;;;4993101;28;20470;-72
2023/02/12 10:48:21;;;;;;;33.60;19.43;;;14.80;99.90;;;;;;4993326;28;20412;-72
2023/02/12 10:50:58;;;;;;;34.60;21.23;;;14.80;99.90;;;;;;4993640;28;20438;-72
2023/02/12 10:53:39;;;;;;;35.97;20.23;;;14.80;99.90;;;;;;4993311;28;20453;-72
2023/02/12 10:56:10;;;;;;;29.03;17.67;;;14.80;99.90;;;;;;4992803;28;20400;-72
2023/02/12 10:58:39;;;;;;;28.50;18.13;;;14.90;99.90;;;;;;4993248;28;20466;-72
2023/02/12 11:01:15;;;;;;;38.43;19.43;;;15.00;99.90;;;;;;4993186;28;20431;-72
2023/02/12 11:03:41;;;;;;;28.70;18.33;;;14.80;99.90;;;;;;4993313;28;20415;-72
2023/02/12 11:06:19;;;;;;;33.63;18.30;;;15.00;99.90;;;;;;4992804;28;20439;-72
2023/02/12 11:08:45;;;;;;;30.37;16.53;;;15.00;99.90;;;;;;4993045;28;20231;-71
2023/02/12 11:11:20;;;;;;;29.50;17.23;;;15.10;99.90;;;;;;4992937;28;20424;-72
2023/02/12 11:13:55;;;;;;;37.43;17.80;;;15.20;99.90;;;;;;4993434;28;20456;-72
2023/02/12 11:16:32;;;;;;;30.50;17.40;;;15.40;99.90;;;;;;4992603;28;20404;-72
2023/02/12 11:19:04;;;;;;;30.13;17.47;;;15.50;99.90;;;;;;4992921;28;20403;-72
2023/02/12 11:21:31;;;;;;;30.93;17.20;;;15.60;99.90;;;;;;4992794;28;20471;-72
2023/02/12 11:24:16;;;;;;;27.80;16.60;;;15.60;99.90;;;;;;4991769;28;20454;-72
2023/02/12 11:26:42;;;;;;;34.83;19.40;;;15.60;99.90;;;;;;4992653;28;20423;-72
2023/02/12 11:29:25;;;;;;;33.10;18.07;;;15.50;99.90;;;;;;4992749;28;20404;-72
2023/02/12 11:32:09;;;;;;;27.43;16.00;;;15.30;99.90;;;;;;4992689;28;20548;-72
2023/02/12 11:34:35;;;;;;;24.17;15.13;;;15.40;99.90;;;;;;4992506;28;20404;-72
2023/02/12 11:37:01;;;;;;;33.23;15.10;;;15.40;99.90;;;;;;4992773;28;20436;-72
2023/02/12 11:39:38;;;;;;;25.80;16.03;;;15.40;99.90;;;;;;4992740;28;20407;-72
2023/02/12 11:42:24;;;;;;;25.57;15.07;;;15.40;99.90;;;;;;5004145;28;20813;-72
2023/02/12 11:44:58;;;;;;;21.67;13.73;;;15.50;99.90;;;;;;5028812;28;20415;-72
2023/02/12 11:47:29;;;;;;;23.63;14.50;;;15.50;99.90;;;;;;5012239;28;20407;-72
2023/02/12 11:50:07;;;;;;;26.03;15.17;;;15.40;99.90;;;;;;5012273;28;20904;-73
2023/02/12 11:52:35;;;;;;;28.20;13.70;;;15.40;99.90;;;;;;5012135;28;20452;-72
2023/02/12 11:55:18;;;;;;;25.53;14.60;;;15.40;99.90;;;;;;5013753;28;20426;-72
2023/02/12 11:57:47;;;;;;;22.27;13.20;;;15.40;99.90;;;;;;5016244;28;20434;-72
2023/02/12 12:00:27;;;;;;;24.80;15.63;;;15.40;99.90;;;;;;5015975;28;20415;-72
2023/02/12 12:03:16;;;;;;;23.13;14.83;;;15.20;99.90;;;;;;5016135;28;20409;-73
2023/02/12 12:05:51;;;;;;;26.90;13.83;;;15.10;99.90;;;;;;5015785;28;20777;-72
2023/02/12 12:08:25;;;;;;;27.17;14.77;;;15.10;99.90;;;;;;5014783;28;21193;-71
2023/02/12 12:11:11;;;;;;;22.87;14.40;;;15.20;99.90;;;;;;4996386;28;20458;-71
2023/02/12 12:13:47;;;;;;;30.23;15.83;;;15.40;99.90;;;;;;4996366;28;20514;-72
2023/02/12 12:19:53;;;;;;;23.13;14.13;;;15.30;99.90;;;;;;5015726;28;20529;-72
2023/02/12 12:22:37;;;;;;;22.90;14.77;;;15.30;99.90;;;;;;5015847;28;20407;-72
2023/02/12 12:25:22;;;;;;;22.50;13.97;;;15.40;99.90;;;;;;5015343;28;20913;-72
2023/02/12 12:28:05;;;;;;;20.10;13.23;;;15.60;99.90;;;;;;5015717;28;20498;-72
2023/02/12 12:30:53;;;;;;;22.70;13.07;;;15.70;99.90;;;;;;5014272;28;20480;-72
2023/02/12 12:33:40;;;;;;;26.27;15.67;;;15.70;99.90;;;;;;5015448;28;20443;-72
2023/02/12 12:36:42;;;;;;;27.03;15.40;;;15.70;99.90;;;;;;5015204;28;20496;-72
2023/02/12 12:39:26;;;;;;;26.70;14.87;;;15.70;99.90;;;;;;5014358;28;20919;-71
2023/02/12 12:42:11;;;;;;;27.27;16.43;;;15.50;99.90;;;;;;5015167;28;20433;-72
2023/02/12 12:45:14;;;;;;;20.83;13.53;;;15.40;99.90;;;;;;5014070;28;20958;-72
2023/02/12 12:48:05;;;;;;;20.90;13.90;;;15.40;99.90;;;;;;4994265;28;20435;-72
2023/02/12 12:51:14;;;;;;;26.10;16.90;;;15.50;99.90;;;;;;5004471;28;20429;-72
2023/02/12 12:54:06;;;;;;;23.50;13.93;;;15.50;99.90;;;;;;5018871;28;20451;-72
2023/02/12 12:56:50;;;;;;;22.67;15.00;;;15.30;99.90;;;;;;5014812;28;20905;-72
2023/02/12 12:59:43;;;;;;;28.90;16.90;;;15.40;99.90;;;;;;5015111;28;20441;-72
2023/02/12 13:02:44;;;;;;;27.10;15.50;;;15.30;99.90;;;;;;5014773;28;20435;-72
2023/02/12 13:05:40;;;;;;;22.50;14.07;;;15.40;99.90;;;;;;5014327;28;20399;-72